createdAt,value
2018-08-30T00:00:40.116Z,0
2018-08-30T00:01:50.079Z,0
2018-08-30T00:03:00.036Z,0
2018-08-30T00:04:09.989Z,0
2018-08-30T00:05:19.696Z,0
2018-08-30T00:06:29.653Z,0
2018-08-30T00:07:39.617Z,0
2018-08-30T00:08:49.572Z,0
2018-08-30T00:09:59.266Z,0
2018-08-30T00:11:09.216Z,0
2018-08-30T00:12:18.914Z,0
2018-08-30T00:13:28.864Z,0
2018-08-30T00:14:38.821Z,0
2018-08-30T00:15:48.794Z,0
2018-08-30T00:16:58.496Z,0
2018-08-30T00:18:08.465Z,0
2018-08-30T00:19:18.429Z,0
2018-08-30T00:20:28.383Z,0
2018-08-30T00:21:38.085Z,0
2018-08-30T00:22:47.774Z,0
2018-08-30T00:23:57.482Z,0
2018-08-30T00:25:07.455Z,0
2018-08-30T00:26:17.429Z,0
2018-08-30T00:27:27.410Z,0
2018-08-30T00:28:37.375Z,0
2018-08-30T00:29:47.354Z,0
2018-08-30T00:30:57.049Z,0
2018-08-30T00:32:07.009Z,0
2018-08-30T00:33:16.719Z,0
2018-08-30T00:34:26.699Z,0
2018-08-30T00:35:36.659Z,0
2018-08-30T00:36:46.621Z,0
2018-08-30T00:37:56.594Z,0
2018-08-30T00:39:06.565Z,0
2018-08-30T00:40:16.527Z,0
2018-08-30T00:41:26.868Z,0
2018-08-30T00:42:36.917Z,0
2018-08-30T00:43:46.621Z,0
2018-08-30T00:44:56.066Z,0
2018-08-30T00:46:06.032Z,0
2018-08-30T00:47:16.007Z,0
2018-08-30T00:48:25.973Z,0
2018-08-30T00:49:35.937Z,0
2018-08-30T00:50:45.896Z,0
2018-08-30T00:51:55.858Z,0
2018-08-30T00:53:05.841Z,0
2018-08-30T00:54:15.541Z,0
2018-08-30T00:55:25.514Z,0
2018-08-30T00:56:35.478Z,0
2018-08-30T00:57:45.179Z,0
2018-08-30T00:58:55.140Z,0
2018-08-30T01:00:05.100Z,0
2018-08-30T01:01:15.054Z,0
2018-08-30T01:02:24.775Z,0
2018-08-30T01:03:34.498Z,0
2018-08-30T01:04:44.205Z,0
2018-08-30T01:05:53.908Z,0
2018-08-30T01:07:03.352Z,0
2018-08-30T01:08:13.310Z,0
2018-08-30T01:09:23.267Z,0
2018-08-30T01:10:32.960Z,0
2018-08-30T01:11:42.668Z,0
2018-08-30T01:12:52.651Z,0
2018-08-30T01:14:02.355Z,0
2018-08-30T01:15:12.313Z,0
2018-08-30T01:16:22.276Z,0
2018-08-30T01:17:31.980Z,0
2018-08-30T01:18:41.943Z,0
2018-08-30T01:19:51.656Z,0
2018-08-30T01:21:01.361Z,0
2018-08-30T01:22:11.318Z,0
2018-08-30T01:23:21.025Z,0
2018-08-30T01:24:30.986Z,0
2018-08-30T01:25:40.700Z,0
2018-08-30T01:26:50.447Z,0
2018-08-30T01:28:00.154Z,0
2018-08-30T01:29:09.600Z,0
2018-08-30T01:30:19.556Z,0
2018-08-30T01:31:29.253Z,0
2018-08-30T01:32:39.208Z,0
2018-08-30T01:33:48.916Z,0
2018-08-30T01:34:58.626Z,0
2018-08-30T01:36:08.580Z,0
2018-08-30T01:37:18.278Z,0
2018-08-30T01:38:27.981Z,0
2018-08-30T01:39:37.946Z,0
2018-08-30T01:40:47.904Z,0
2018-08-30T01:41:57.608Z,0
2018-08-30T01:43:07.573Z,0
2018-08-30T01:44:17.536Z,0
2018-08-30T01:45:26.976Z,0
2018-08-30T01:46:36.674Z,0
2018-08-30T01:47:46.376Z,0
2018-08-30T01:48:56.075Z,0
2018-08-30T01:50:06.050Z,0
2018-08-30T01:51:16.013Z,0
2018-08-30T01:52:25.964Z,0
2018-08-30T01:53:35.926Z,0
2018-08-30T01:54:45.884Z,0
2018-08-30T01:55:55.880Z,0
2018-08-30T01:57:05.835Z,0
2018-08-30T01:58:15.533Z,0
2018-08-30T01:59:25.496Z,0
2018-08-30T02:00:35.445Z,0
2018-08-30T02:01:45.425Z,0
2018-08-30T02:02:55.124Z,0
2018-08-30T02:04:05.099Z,0
2018-08-30T02:05:15.053Z,0
2018-08-30T02:06:25.010Z,0
2018-08-30T02:07:34.966Z,0
2018-08-30T02:08:44.669Z,0
2018-08-30T02:09:54.377Z,0
2018-08-30T02:11:03.563Z,0
2018-08-30T02:12:13.515Z,0
2018-08-30T02:13:22.951Z,0
2018-08-30T02:14:32.663Z,0
2018-08-30T02:15:42.637Z,0
2018-08-30T02:16:52.605Z,0
2018-08-30T02:18:02.552Z,0
2018-08-30T02:19:12.499Z,0
2018-08-30T02:20:22.449Z,0
2018-08-30T02:21:31.901Z,0
2018-08-30T02:22:41.863Z,0
2018-08-30T02:23:51.813Z,0
2018-08-30T02:25:01.771Z,0
2018-08-30T02:26:11.734Z,0
2018-08-30T02:27:21.444Z,0
2018-08-30T02:28:31.412Z,0
2018-08-30T02:29:41.372Z,0
2018-08-30T02:30:51.359Z,0
2018-08-30T02:32:01.328Z,0
2018-08-30T02:33:11.281Z,0
2018-08-30T02:34:21.233Z,0
2018-08-30T02:35:31.198Z,0
2018-08-30T02:36:41.163Z,0
2018-08-30T02:37:51.119Z,0
2018-08-30T02:39:01.082Z,0
2018-08-30T02:40:10.800Z,0
2018-08-30T02:41:20.249Z,0
2018-08-30T02:42:30.219Z,0
2018-08-30T02:43:40.170Z,0
2018-08-30T02:44:50.212Z,0
2018-08-30T02:46:00.195Z,0
2018-08-30T02:47:09.897Z,0
2018-08-30T02:48:19.919Z,0
2018-08-30T02:49:29.896Z,0
2018-08-30T02:50:39.079Z,0
2018-08-30T02:51:48.535Z,0
2018-08-30T02:52:57.968Z,0
2018-08-30T02:54:07.665Z,0
2018-08-30T02:55:17.634Z,0
2018-08-30T02:56:27.344Z,0
2018-08-30T02:57:37.059Z,0
2018-08-30T02:58:47.015Z,0
2018-08-30T02:59:56.967Z,0
2018-08-30T03:01:06.923Z,0
2018-08-30T03:02:16.982Z,0
2018-08-30T03:03:26.941Z,0
2018-08-30T03:04:36.898Z,0
2018-08-30T03:05:46.864Z,0
2018-08-30T03:06:56.580Z,0
2018-08-30T03:08:06.284Z,0
2018-08-30T03:09:16.245Z,0
2018-08-30T03:10:25.691Z,0
2018-08-30T03:11:35.637Z,0
2018-08-30T03:12:45.585Z,0
2018-08-30T03:13:55.535Z,0
2018-08-30T03:15:05.249Z,0
2018-08-30T03:16:15.220Z,0
2018-08-30T03:17:24.919Z,0
2018-08-30T03:18:34.885Z,0
2018-08-30T03:19:44.595Z,0
2018-08-30T03:20:54.569Z,0
2018-08-30T03:22:04.524Z,0
2018-08-30T03:23:14.496Z,0
2018-08-30T03:24:24.463Z,0
2018-08-30T03:25:34.425Z,0
2018-08-30T03:26:44.543Z,0
2018-08-30T03:27:54.248Z,0
2018-08-30T03:29:03.946Z,0
2018-08-30T03:30:14.317Z,0
2018-08-30T03:31:24.281Z,0
2018-08-30T03:32:33.997Z,0
2018-08-30T03:33:43.968Z,0
2018-08-30T03:34:53.679Z,0
2018-08-30T03:36:03.635Z,0
2018-08-30T03:37:13.081Z,0
2018-08-30T03:38:22.777Z,0
2018-08-30T03:39:32.235Z,0
2018-08-30T03:40:41.950Z,0
2018-08-30T03:41:51.898Z,0
2018-08-30T03:43:01.344Z,0
2018-08-30T03:44:11.052Z,0
2018-08-30T03:45:21.018Z,0
2018-08-30T03:46:30.729Z,0
2018-08-30T03:47:40.693Z,0
2018-08-30T03:48:50.647Z,0
2018-08-30T03:50:00.351Z,0
2018-08-30T03:51:10.303Z,0
2018-08-30T03:52:20.005Z,0
2018-08-30T03:53:29.977Z,0
2018-08-30T03:54:39.929Z,0
2018-08-30T03:55:49.641Z,0
2018-08-30T03:56:59.605Z,0
2018-08-30T03:58:09.573Z,0
2018-08-30T03:59:19.533Z,0
2018-08-30T04:00:29.244Z,0
2018-08-30T04:01:39.212Z,0
2018-08-30T04:02:48.919Z,0
2018-08-30T04:03:58.654Z,0
2018-08-30T04:05:08.359Z,0
2018-08-30T04:06:18.322Z,0
2018-08-30T04:07:28.294Z,5
2018-08-30T04:08:38.257Z,5
2018-08-30T04:09:48.038Z,5
2018-08-30T04:10:58.008Z,5
2018-08-30T04:12:07.708Z,5
2018-08-30T04:13:17.667Z,5
2018-08-30T04:14:27.367Z,5
2018-08-30T04:15:37.355Z,10
2018-08-30T04:16:47.058Z,10
2018-08-30T04:17:57.010Z,10
2018-08-30T04:19:06.956Z,10
2018-08-30T04:20:16.668Z,15
2018-08-30T04:21:26.628Z,15
2018-08-30T04:22:36.594Z,20
2018-08-30T04:23:46.040Z,20
2018-08-30T04:24:56.000Z,25
2018-08-30T04:26:05.960Z,25
2018-08-30T04:27:15.884Z,25
2018-08-30T04:28:25.841Z,30
2018-08-30T04:29:35.825Z,30
2018-08-30T04:30:45.545Z,30
2018-08-30T04:31:55.244Z,35
2018-08-30T04:33:04.937Z,35
2018-08-30T04:34:14.888Z,40
2018-08-30T04:35:24.594Z,40
2018-08-30T04:36:34.587Z,40
2018-08-30T04:37:44.554Z,45
2018-08-30T04:38:54.526Z,45
2018-08-30T04:40:04.495Z,50
2018-08-30T04:41:14.201Z,55
2018-08-30T04:42:24.570Z,55
2018-08-30T04:43:34.652Z,55
2018-08-30T04:44:44.099Z,55
2018-08-30T04:45:54.071Z,60
2018-08-30T04:47:04.031Z,60
2018-08-30T04:48:13.731Z,65
2018-08-30T04:49:23.688Z,65
2018-08-30T04:50:34.153Z,65
2018-08-30T04:51:44.014Z,70
2018-08-30T04:52:53.741Z,70
2018-08-30T04:54:03.690Z,75
2018-08-30T04:55:13.396Z,75
2018-08-30T04:56:23.573Z,75
2018-08-30T04:57:33.284Z,75
2018-08-30T04:58:43.284Z,75
2018-08-30T04:59:53.245Z,75
2018-08-30T05:01:03.221Z,70
2018-08-30T05:02:12.936Z,70
2018-08-30T05:03:22.905Z,70
2018-08-30T05:04:32.680Z,70
2018-08-30T05:05:42.137Z,70
2018-08-30T05:06:51.848Z,65
2018-08-30T05:08:01.813Z,65
2018-08-30T05:09:11.513Z,60
2018-08-30T05:10:21.588Z,60
2018-08-30T05:11:31.282Z,60
2018-08-30T05:12:40.985Z,55
2018-08-30T05:13:50.690Z,55
2018-08-30T05:15:00.655Z,55
2018-08-30T05:16:10.619Z,60
2018-08-30T05:17:20.339Z,60
2018-08-30T05:18:30.323Z,65
2018-08-30T05:19:40.282Z,65
2018-08-30T05:20:50.252Z,70
2018-08-30T05:22:00.209Z,70
2018-08-30T05:23:09.777Z,75
2018-08-30T05:24:19.813Z,75
2018-08-30T05:25:29.512Z,80
2018-08-30T05:26:39.474Z,80
2018-08-30T05:27:48.916Z,85
2018-08-30T05:28:58.645Z,85
2018-08-30T05:30:08.631Z,90
2018-08-30T05:31:18.337Z,90
2018-08-30T05:32:28.307Z,90
2018-08-30T05:33:38.294Z,95
2018-08-30T05:34:48.038Z,100
2018-08-30T05:35:58.445Z,100
2018-08-30T05:37:08.424Z,105
2018-08-30T05:38:17.879Z,105
2018-08-30T05:39:27.610Z,110
2018-08-30T05:40:37.568Z,115
2018-08-30T05:41:47.262Z,120
2018-08-30T05:42:56.962Z,120
2018-08-30T05:44:06.661Z,130
2018-08-30T05:45:16.116Z,135
2018-08-30T05:46:25.828Z,140
2018-08-30T05:47:35.784Z,140
2018-08-30T05:48:45.780Z,140
2018-08-30T05:49:55.751Z,140
2018-08-30T05:51:05.588Z,135
2018-08-30T05:52:15.564Z,130
2018-08-30T05:53:25.527Z,125
2018-08-30T05:54:35.476Z,125
2018-08-30T05:55:45.449Z,125
2018-08-30T05:56:55.800Z,130
2018-08-30T05:58:05.540Z,135
2018-08-30T05:59:15.508Z,145
2018-08-30T06:00:24.694Z,155
2018-08-30T06:01:34.591Z,165
2018-08-30T06:02:44.565Z,175
2018-08-30T06:03:54.523Z,180
2018-08-30T06:05:03.967Z,185
2018-08-30T06:06:13.926Z,190
2018-08-30T06:07:23.955Z,195
2018-08-30T06:08:34.460Z,205
2018-08-30T06:09:43.652Z,215
2018-08-30T06:10:53.349Z,230
2018-08-30T06:12:03.335Z,250
2018-08-30T06:13:13.806Z,255
2018-08-30T06:14:23.590Z,275
2018-08-30T06:15:33.286Z,285
2018-08-30T06:16:43.002Z,285
2018-08-30T06:17:52.699Z,285
2018-08-30T06:19:02.672Z,290
2018-08-30T06:20:12.379Z,290
2018-08-30T06:21:22.344Z,290
2018-08-30T06:22:32.313Z,280
2018-08-30T06:23:42.282Z,270
2018-08-30T06:24:52.011Z,265
2018-08-30T06:26:01.987Z,250
2018-08-30T06:27:11.960Z,240
2018-08-30T06:28:21.706Z,240
2018-08-30T06:29:32.054Z,235
2018-08-30T06:30:41.751Z,235
2018-08-30T06:31:51.756Z,235
2018-08-30T06:33:02.029Z,240
2018-08-30T06:34:12.136Z,245
2018-08-30T06:35:22.099Z,255
2018-08-30T06:36:32.061Z,265
2018-08-30T06:37:41.793Z,265
2018-08-30T06:38:52.096Z,265
2018-08-30T06:40:02.183Z,265
2018-08-30T06:41:12.146Z,265
2018-08-30T06:42:22.116Z,270
2018-08-30T06:43:32.103Z,265
2018-08-30T06:44:42.132Z,260
2018-08-30T06:45:52.109Z,265
2018-08-30T06:47:02.073Z,270
2018-08-30T06:48:11.572Z,270
2018-08-30T06:49:21.562Z,275
2018-08-30T06:50:31.551Z,270
2018-08-30T06:51:41.280Z,275
2018-08-30T06:52:51.261Z,275
2018-08-30T06:54:01.258Z,275
2018-08-30T06:55:10.961Z,270
2018-08-30T06:56:20.928Z,270
2018-08-30T06:57:30.955Z,265
2018-08-30T06:58:41.044Z,260
2018-08-30T06:59:50.760Z,255
2018-08-30T07:01:00.720Z,245
2018-08-30T07:02:10.452Z,240
2018-08-30T07:03:20.498Z,240
2018-08-30T07:04:30.626Z,235
2018-08-30T07:05:40.330Z,235
2018-08-30T07:06:50.054Z,235
2018-08-30T07:08:00.082Z,240
2018-08-30T07:09:09.593Z,240
2018-08-30T07:10:19.080Z,235
2018-08-30T07:11:29.039Z,235
2018-08-30T07:12:39.023Z,240
2018-08-30T07:13:48.736Z,245
2018-08-30T07:14:59.024Z,260
2018-08-30T07:16:09.139Z,275
2018-08-30T07:17:19.113Z,285
2018-08-30T07:18:29.097Z,305
2018-08-30T07:19:38.668Z,320
2018-08-30T07:20:48.501Z,345
2018-08-30T07:21:58.474Z,360
2018-08-30T07:23:08.458Z,385
2018-08-30T07:24:18.783Z,400
2018-08-30T07:25:28.763Z,420
2018-08-30T07:26:38.727Z,420
2018-08-30T07:27:48.694Z,430
2018-08-30T07:28:58.717Z,445
2018-08-30T07:30:08.694Z,450
2018-08-30T07:31:18.433Z,450
2018-08-30T07:32:28.138Z,450
2018-08-30T07:33:38.131Z,455
2018-08-30T07:34:48.976Z,455
2018-08-30T07:35:59.097Z,445
2018-08-30T07:37:09.061Z,435
2018-08-30T07:38:19.042Z,430
2018-08-30T07:39:29.007Z,420
2018-08-30T07:40:38.736Z,415
2018-08-30T07:41:48.457Z,410
2018-08-30T07:42:58.481Z,405
2018-08-30T07:44:09.107Z,410
2018-08-30T07:45:19.102Z,415
2018-08-30T07:46:29.071Z,420
2018-08-30T07:47:38.783Z,425
2018-08-30T07:48:48.591Z,420
2018-08-30T07:49:58.321Z,420
2018-08-30T07:51:08.998Z,410
2018-08-30T07:52:18.440Z,400
2018-08-30T07:53:28.158Z,380
2018-08-30T07:54:38.263Z,365
2018-08-30T07:55:48.258Z,340
2018-08-30T07:56:58.296Z,340
2018-08-30T07:58:08.278Z,340
2018-08-30T07:59:17.986Z,345
2018-08-30T08:00:27.963Z,355
2018-08-30T08:01:37.934Z,365
2018-08-30T08:02:47.897Z,380
2018-08-30T08:03:57.610Z,395
2018-08-30T08:05:07.061Z,400
2018-08-30T08:06:17.063Z,400
2018-08-30T08:07:27.641Z,400
2018-08-30T08:08:37.363Z,400
2018-08-30T08:09:46.823Z,400
2018-08-30T08:10:56.547Z,395
2018-08-30T08:12:07.201Z,385
2018-08-30T08:13:16.812Z,375
2018-08-30T08:14:26.783Z,360
2018-08-30T08:15:36.776Z,350
2018-08-30T08:16:46.775Z,325
2018-08-30T08:17:56.497Z,305
2018-08-30T08:19:06.944Z,300
2018-08-30T08:20:16.673Z,310
2018-08-30T08:21:26.642Z,315
2018-08-30T08:22:36.606Z,325
2018-08-30T08:23:46.565Z,335
2018-08-30T08:24:56.657Z,335
2018-08-30T08:26:06.389Z,335
2018-08-30T08:27:16.377Z,320
2018-08-30T08:28:26.611Z,310
2018-08-30T08:29:36.879Z,310
2018-08-30T08:30:46.330Z,320
2018-08-30T08:31:56.071Z,340
2018-08-30T08:33:06.109Z,360
2018-08-30T08:34:15.822Z,385
2018-08-30T08:35:25.796Z,400
2018-08-30T08:36:35.522Z,395
2018-08-30T08:37:45.504Z,400
2018-08-30T08:38:55.348Z,380
2018-08-30T08:40:04.864Z,350
2018-08-30T08:41:14.584Z,305
2018-08-30T08:42:24.553Z,295
2018-08-30T08:43:34.546Z,290
2018-08-30T08:44:44.552Z,285
2018-08-30T08:45:54.531Z,250
2018-08-30T08:47:04.563Z,215
2018-08-30T08:48:14.322Z,240
2018-08-30T08:49:23.794Z,275
2018-08-30T08:50:33.747Z,330
2018-08-30T08:51:43.739Z,355
2018-08-30T08:52:53.792Z,375
2018-08-30T08:54:03.727Z,405
2018-08-30T08:55:13.438Z,430
2018-08-30T08:56:23.449Z,440
2018-08-30T08:57:33.415Z,480
2018-08-30T08:58:43.479Z,490
2018-08-30T08:59:53.461Z,480
2018-08-30T09:01:03.459Z,455
2018-08-30T09:02:13.435Z,420
2018-08-30T09:03:23.403Z,430
2018-08-30T09:04:33.148Z,445
2018-08-30T09:05:43.133Z,440
2018-08-30T09:06:53.293Z,425
2018-08-30T09:08:03.548Z,440
2018-08-30T09:09:13.276Z,440
2018-08-30T09:10:22.984Z,445
2018-08-30T09:11:33.204Z,465
2018-08-30T09:12:42.968Z,465
2018-08-30T09:13:52.420Z,470
2018-08-30T09:15:02.142Z,500
2018-08-30T09:16:12.155Z,475
2018-08-30T09:17:22.129Z,505
2018-08-30T09:18:32.146Z,530
2018-08-30T09:19:42.233Z,525
2018-08-30T09:20:51.943Z,510
2018-08-30T09:22:01.656Z,515
2018-08-30T09:23:12.054Z,505
2018-08-30T09:24:22.111Z,490
2018-08-30T09:25:31.857Z,480
2018-08-30T09:26:41.943Z,480
2018-08-30T09:27:51.980Z,465
2018-08-30T09:29:01.940Z,450
2018-08-30T09:30:11.928Z,400
2018-08-30T09:31:21.672Z,335
2018-08-30T09:32:31.634Z,320
2018-08-30T09:33:41.366Z,255
2018-08-30T09:34:51.349Z,225
2018-08-30T09:36:01.080Z,230
2018-08-30T09:37:11.065Z,215
2018-08-30T09:38:21.040Z,230
2018-08-30T09:39:30.764Z,245
2018-08-30T09:40:40.739Z,220
2018-08-30T09:41:50.702Z,200
2018-08-30T09:43:00.670Z,195
2018-08-30T09:44:10.649Z,180
2018-08-30T09:45:20.645Z,175
2018-08-30T09:46:30.370Z,180
2018-08-30T09:47:40.361Z,175
2018-08-30T09:48:50.386Z,180
2018-08-30T09:50:00.403Z,180
2018-08-30T09:51:10.392Z,180
2018-08-30T09:52:20.131Z,180
2018-08-30T09:53:30.180Z,170
2018-08-30T09:54:39.885Z,155
2018-08-30T09:55:50.319Z,145
2018-08-30T09:57:01.097Z,150
2018-08-30T09:58:11.440Z,150
2018-08-30T09:59:21.163Z,150
2018-08-30T10:00:31.140Z,150
2018-08-30T10:01:41.138Z,160
2018-08-30T10:02:51.125Z,165
2018-08-30T10:04:01.462Z,150
2018-08-30T10:05:11.542Z,155
2018-08-30T10:06:21.245Z,155
2018-08-30T10:07:31.226Z,185
2018-08-30T10:08:41.237Z,220
2018-08-30T10:09:51.205Z,195
2018-08-30T10:11:01.213Z,240
2018-08-30T10:12:11.246Z,255
2018-08-30T10:13:21.224Z,220
2018-08-30T10:14:31.173Z,230
2018-08-30T10:15:41.172Z,230
2018-08-30T10:16:50.903Z,220
2018-08-30T10:18:00.881Z,200
2018-08-30T10:19:10.363Z,180
2018-08-30T10:20:20.341Z,170
2018-08-30T10:21:30.656Z,230
2018-08-30T10:22:40.634Z,275
2018-08-30T10:23:50.611Z,280
2018-08-30T10:25:00.352Z,230
2018-08-30T10:26:10.398Z,180
2018-08-30T10:27:20.403Z,160
2018-08-30T10:28:30.387Z,140
2018-08-30T10:29:40.363Z,120
2018-08-30T10:30:50.137Z,105
2018-08-30T10:31:59.865Z,90
2018-08-30T10:33:09.837Z,115
2018-08-30T10:34:19.825Z,175
2018-08-30T10:35:29.861Z,205
2018-08-30T10:36:39.841Z,255
2018-08-30T10:37:49.584Z,350
2018-08-30T10:38:59.842Z,395
2018-08-30T10:40:09.575Z,370
2018-08-30T10:41:19.313Z,340
2018-08-30T10:42:28.847Z,240
2018-08-30T10:43:38.856Z,160
2018-08-30T10:44:48.834Z,150
2018-08-30T10:45:58.602Z,130
2018-08-30T10:47:08.357Z,135
2018-08-30T10:48:18.125Z,155
2018-08-30T10:49:28.524Z,150
2018-08-30T10:50:37.872Z,165
2018-08-30T10:51:47.618Z,165
2018-08-30T10:52:57.332Z,155
2018-08-30T10:54:07.059Z,180
2018-08-30T10:55:17.052Z,175
2018-08-30T10:56:27.592Z,165
2018-08-30T10:57:37.276Z,145
2018-08-30T10:58:47.262Z,145
2018-08-30T10:59:57.267Z,180
2018-08-30T11:01:07.255Z,205
2018-08-30T11:02:17.273Z,215
2018-08-30T11:03:27.255Z,250
2018-08-30T11:04:37.138Z,255
2018-08-30T11:05:47.135Z,255
2018-08-30T11:06:57.372Z,175
2018-08-30T11:08:07.530Z,135
2018-08-30T11:09:17.404Z,180
2018-08-30T11:10:27.192Z,255
2018-08-30T11:11:36.923Z,320
2018-08-30T11:12:46.761Z,340
2018-08-30T11:13:56.565Z,305
2018-08-30T11:15:06.282Z,275
2018-08-30T11:16:16.251Z,300
2018-08-30T11:17:25.722Z,330
2018-08-30T11:18:35.710Z,255
2018-08-30T11:19:45.441Z,175
2018-08-30T11:20:55.151Z,140
2018-08-30T11:22:04.861Z,120
2018-08-30T11:23:14.837Z,130
2018-08-30T11:24:24.946Z,130
2018-08-30T11:25:34.736Z,125
2018-08-30T11:26:44.754Z,155
2018-08-30T11:27:54.214Z,175
2018-08-30T11:29:04.178Z,160
2018-08-30T11:30:13.908Z,165
2018-08-30T11:31:23.618Z,215
2018-08-30T11:32:33.646Z,240
2018-08-30T11:33:43.633Z,295
2018-08-30T11:34:53.369Z,305
2018-08-30T11:36:03.355Z,325
2018-08-30T11:37:13.346Z,330
2018-08-30T11:38:23.330Z,385
2018-08-30T11:39:33.326Z,375
2018-08-30T11:40:43.034Z,355
2018-08-30T11:41:53.490Z,330
2018-08-30T11:43:03.476Z,315
2018-08-30T11:44:13.515Z,345
2018-08-30T11:45:23.498Z,340
2018-08-30T11:46:33.499Z,400
2018-08-30T11:47:43.476Z,460
2018-08-30T11:48:53.188Z,425
2018-08-30T11:50:03.151Z,440
2018-08-30T11:51:13.335Z,590
2018-08-30T11:52:24.048Z,510
2018-08-30T11:53:33.631Z,500
2018-08-30T11:54:43.606Z,485
2018-08-30T11:55:53.601Z,470
2018-08-30T11:57:03.320Z,575
2018-08-30T11:58:12.794Z,605
2018-08-30T11:59:22.773Z,490
2018-08-30T12:00:32.503Z,545
2018-08-30T12:01:42.478Z,520
2018-08-30T12:02:52.449Z,545
2018-08-30T12:04:02.423Z,525
2018-08-30T12:05:12.383Z,530
2018-08-30T12:06:22.107Z,545
2018-08-30T12:07:31.822Z,525
2018-08-30T12:08:41.975Z,550
2018-08-30T12:09:51.933Z,560
2018-08-30T12:11:02.045Z,590
2018-08-30T12:12:12.187Z,615
2018-08-30T12:13:21.914Z,630
2018-08-30T12:14:31.905Z,650
2018-08-30T12:15:41.622Z,690
2018-08-30T12:16:51.599Z,700
2018-08-30T12:18:01.578Z,640
2018-08-30T12:19:11.291Z,575
2018-08-30T12:20:21.267Z,450
2018-08-30T12:21:31.000Z,425
2018-08-30T12:22:41.028Z,470
2018-08-30T12:23:50.731Z,525
2018-08-30T12:25:00.695Z,460
2018-08-30T12:26:10.690Z,510
2018-08-30T12:27:20.805Z,640
2018-08-30T12:28:30.801Z,950
2018-08-30T12:29:40.989Z,1105
2018-08-30T12:30:50.593Z,630
2018-08-30T12:32:00.439Z,580
2018-08-30T12:33:10.370Z,435
2018-08-30T12:34:20.379Z,395
2018-08-30T12:35:31.155Z,375
2018-08-30T12:36:41.617Z,375
2018-08-30T12:37:51.530Z,325
2018-08-30T12:39:01.792Z,295
2018-08-30T12:40:12.890Z,250
2018-08-30T12:41:22.860Z,430
2018-08-30T12:42:33.317Z,365
2018-08-30T12:43:43.755Z,260
2018-08-30T12:44:54.082Z,260
2018-08-30T12:46:04.322Z,240
2018-08-30T12:47:13.828Z,275
2018-08-30T12:48:24.018Z,330
2018-08-30T12:49:34.133Z,350
2018-08-30T12:50:44.923Z,295
2018-08-30T12:51:56.577Z,185
2018-08-30T12:53:06.776Z,145
2018-08-30T12:54:17.753Z,115
2018-08-30T12:55:28.146Z,105
2018-08-30T12:56:38.201Z,90
2018-08-30T12:57:49.174Z,80
2018-08-30T12:59:00.489Z,70
2018-08-30T13:00:11.537Z,70
2018-08-30T13:01:22.833Z,70
2018-08-30T13:02:34.560Z,80
2018-08-30T13:03:46.220Z,85
2018-08-30T13:04:58.303Z,90
2018-08-30T13:06:11.530Z,95
2018-08-30T13:07:22.776Z,130
2018-08-30T13:08:35.312Z,160
2018-08-30T13:09:47.665Z,180
2018-08-30T13:11:00.567Z,180
2018-08-30T13:12:13.513Z,110
2018-08-30T13:13:25.953Z,85
2018-08-30T13:14:38.634Z,70
2018-08-30T13:15:50.190Z,60
2018-08-30T13:17:02.362Z,60
2018-08-30T13:18:13.793Z,60
2018-08-30T13:19:27.206Z,65
2018-08-30T13:20:39.209Z,75
2018-08-30T13:21:51.876Z,90
2018-08-30T13:23:03.764Z,120
2018-08-30T13:24:16.382Z,145
2018-08-30T13:25:28.312Z,150
2018-08-30T13:26:40.714Z,160
2018-08-30T13:27:53.099Z,155
2018-08-30T13:29:04.660Z,160
2018-08-30T13:30:17.984Z,185
2018-08-30T13:31:30.275Z,200
2018-08-30T13:32:43.501Z,215
2018-08-30T13:33:57.153Z,240
2018-08-30T13:35:09.300Z,275
2018-08-30T13:36:22.781Z,300
2018-08-30T13:37:34.395Z,320
2018-08-30T13:38:47.782Z,350
2018-08-30T13:40:00.990Z,405
2018-08-30T13:41:14.020Z,470
2018-08-30T13:42:27.741Z,525
2018-08-30T13:43:40.264Z,550
2018-08-30T13:44:54.359Z,585
2018-08-30T13:46:08.156Z,590
2018-08-30T13:47:21.981Z,550
2018-08-30T13:48:35.325Z,515
2018-08-30T13:49:47.515Z,460
2018-08-30T13:51:00.416Z,365
2018-08-30T13:52:14.162Z,290
2018-08-30T13:53:28.118Z,240
2018-08-30T13:54:40.561Z,220
2018-08-30T13:55:54.038Z,235
2018-08-30T13:57:08.742Z,290
2018-08-30T13:58:22.213Z,270
2018-08-30T13:59:37.117Z,265
2018-08-30T14:00:52.860Z,265
2018-08-30T14:02:05.865Z,225
2018-08-30T14:03:17.133Z,190
2018-08-30T14:04:30.186Z,170
2018-08-30T14:05:43.229Z,160
2018-08-30T14:06:55.097Z,145
2018-08-30T14:08:08.028Z,105
2018-08-30T14:09:19.992Z,80
2018-08-30T14:10:33.469Z,60
2018-08-30T14:11:45.652Z,55
2018-08-30T14:12:58.356Z,55
2018-08-30T14:14:11.191Z,50
2018-08-30T14:15:22.438Z,45
2018-08-30T14:16:32.490Z,40
2018-08-30T14:17:42.287Z,40
2018-08-30T14:18:52.244Z,40
2018-08-30T14:20:02.160Z,45
2018-08-30T14:21:11.898Z,45
2018-08-30T14:22:22.096Z,50
2018-08-30T14:23:32.399Z,55
2018-08-30T14:24:42.608Z,60
2018-08-30T14:25:52.492Z,65
2018-08-30T14:27:02.871Z,70
2018-08-30T14:28:13.025Z,75
2018-08-30T14:29:23.139Z,85
2018-08-30T14:30:33.106Z,90
2018-08-30T14:31:42.972Z,95
2018-08-30T14:32:53.535Z,100
2018-08-30T14:34:03.359Z,105
2018-08-30T14:35:13.381Z,110
2018-08-30T14:36:23.439Z,120
2018-08-30T14:37:33.675Z,135
2018-08-30T14:38:43.935Z,140
2018-08-30T14:39:53.647Z,150
2018-08-30T14:41:04.735Z,155
2018-08-30T14:42:14.495Z,165
2018-08-30T14:43:24.241Z,175
2018-08-30T14:44:34.266Z,180
2018-08-30T14:45:44.338Z,195
2018-08-30T14:46:54.156Z,210
2018-08-30T14:48:04.281Z,220
2018-08-30T14:49:13.834Z,240
2018-08-30T14:50:23.908Z,270
2018-08-30T14:51:33.892Z,305
2018-08-30T14:52:43.751Z,345
2018-08-30T14:53:57.552Z,360
2018-08-30T14:55:07.401Z,370
2018-08-30T14:56:17.484Z,365
2018-08-30T14:57:27.512Z,345
2018-08-30T14:58:37.553Z,325
2018-08-30T14:59:47.544Z,300
2018-08-30T15:00:57.424Z,290
2018-08-30T15:02:07.283Z,285
2018-08-30T15:03:16.749Z,275
2018-08-30T15:04:26.783Z,250
2018-08-30T15:05:38.076Z,230
2018-08-30T15:06:48.116Z,225
2018-08-30T15:07:58.179Z,225
2018-08-30T15:09:08.319Z,230
2018-08-30T15:10:18.339Z,230
2018-08-30T15:11:28.809Z,235
2018-08-30T15:12:39.597Z,245
2018-08-30T15:13:49.729Z,245
2018-08-30T15:14:59.548Z,240
2018-08-30T15:16:09.645Z,245
2018-08-30T15:17:19.709Z,265
2018-08-30T15:18:29.478Z,265
2018-08-30T15:19:39.199Z,275
2018-08-30T15:20:48.703Z,270
2018-08-30T15:21:57.903Z,250
2018-08-30T15:23:07.957Z,220
2018-08-30T15:24:17.787Z,185
2018-08-30T15:25:27.777Z,145
2018-08-30T15:26:37.623Z,125
2018-08-30T15:27:47.408Z,135
2018-08-30T15:28:57.756Z,145
2018-08-30T15:30:07.894Z,160
2018-08-30T15:31:17.928Z,170
2018-08-30T15:32:27.957Z,175
2018-08-30T15:33:38.010Z,190
2018-08-30T15:34:48.196Z,215
2018-08-30T15:35:58.190Z,240
2018-08-30T15:37:08.217Z,275
2018-08-30T15:38:18.296Z,315
2018-08-30T15:39:28.026Z,345
2018-08-30T15:40:38.187Z,340
2018-08-30T15:41:48.824Z,345
2018-08-30T15:42:59.420Z,340
2018-08-30T15:44:09.485Z,305
2018-08-30T15:45:19.631Z,275
2018-08-30T15:46:29.683Z,255
2018-08-30T15:47:39.746Z,235
2018-08-30T15:48:50.090Z,215
2018-08-30T15:49:59.677Z,205
2018-08-30T15:51:09.664Z,190
2018-08-30T15:52:19.668Z,190
2018-08-30T15:53:30.246Z,200
2018-08-30T15:54:40.236Z,205
2018-08-30T15:55:49.980Z,195
2018-08-30T15:57:00.056Z,175
2018-08-30T15:58:09.798Z,175
2018-08-30T15:59:20.720Z,175
2018-08-30T16:00:31.589Z,175
2018-08-30T16:01:41.912Z,180
2018-08-30T16:02:51.928Z,180
2018-08-30T16:04:02.001Z,175
2018-08-30T16:05:12.447Z,160
2018-08-30T16:06:22.712Z,140
2018-08-30T16:07:32.735Z,115
2018-08-30T16:08:42.478Z,80
2018-08-30T16:09:52.483Z,55
2018-08-30T16:11:02.686Z,40
2018-08-30T16:12:12.509Z,40
2018-08-30T16:13:22.615Z,45
2018-08-30T16:14:32.761Z,50
2018-08-30T16:15:42.778Z,55
2018-08-30T16:16:52.778Z,55
2018-08-30T16:18:03.594Z,65
2018-08-30T16:19:13.367Z,70
2018-08-30T16:20:23.109Z,90
2018-08-30T16:21:33.122Z,105
2018-08-30T16:22:42.859Z,110
2018-08-30T16:23:52.893Z,105
2018-08-30T16:25:02.804Z,105
2018-08-30T16:26:12.633Z,115
2018-08-30T16:27:22.727Z,155
2018-08-30T16:28:32.842Z,105